createdAt,value
2018-07-08T00:02:10.597Z,7.67
2018-07-08T00:04:42.613Z,5.90
2018-07-08T00:07:14.720Z,6.93
2018-07-08T00:09:45.884Z,5.30
2018-07-08T00:12:16.334Z,6.13
2018-07-08T00:14:47.557Z,4.43
2018-07-08T00:17:18.074Z,4.70
2018-07-08T00:19:48.911Z,4.70
2018-07-08T00:22:20.220Z,5.10
2018-07-08T00:24:51.570Z,5.93
2018-07-08T00:27:22.063Z,7.00
2018-07-08T00:29:52.319Z,5.37
2018-07-08T00:32:23.446Z,8.17
2018-07-08T00:34:53.800Z,5.90
2018-07-08T00:37:25.390Z,9.60
2018-07-08T00:39:56.503Z,6.97
2018-07-08T00:42:27.625Z,6.47
2018-07-08T00:44:58.980Z,6.97
2018-07-08T00:47:30.333Z,4.57
2018-07-08T00:50:00.950Z,5.40
2018-07-08T00:52:33.322Z,6.97
2018-07-08T00:55:04.835Z,4.87
2018-07-08T00:57:35.153Z,5.03
2018-07-08T01:00:05.623Z,4.60
2018-07-08T01:02:35.845Z,6.30
2018-07-08T01:05:07.982Z,8.33
2018-07-08T01:07:39.768Z,6.60
2018-07-08T01:10:11.985Z,5.70
2018-07-08T01:12:48.867Z,9.00
2018-07-08T01:15:21.290Z,7.10
2018-07-08T01:17:52.025Z,5.27
2018-07-08T01:20:23.481Z,8.83
2018-07-08T01:22:55.248Z,5.73
2018-07-08T01:25:37.353Z,5.43
2018-07-08T01:28:09.050Z,5.53
2018-07-08T01:30:40.402Z,7.83
2018-07-08T01:33:10.913Z,7.40
2018-07-08T01:35:42.715Z,6.20
2018-07-08T01:38:14.614Z,5.87
2018-07-08T01:40:46.799Z,5.60
2018-07-08T01:43:17.237Z,6.03
2018-07-08T01:45:49.275Z,8.03
2018-07-08T01:48:19.611Z,4.73
2018-07-08T01:50:51.522Z,4.90
2018-07-08T01:53:21.959Z,7.60
2018-07-08T01:55:52.313Z,6.67
2018-07-08T01:58:23.463Z,7.10
2018-07-08T02:00:54.904Z,7.17
2018-07-08T02:03:25.521Z,6.77
2018-07-08T02:05:56.316Z,6.03
2018-07-08T02:08:27.445Z,10.20
2018-07-08T02:10:57.927Z,5.70
2018-07-08T02:13:30.216Z,5.43
2018-07-08T02:16:00.606Z,6.87
2018-07-08T02:18:31.951Z,8.00
2018-07-08T02:21:03.314Z,4.70
2018-07-08T02:23:35.806Z,5.33
2018-07-08T02:26:07.093Z,7.23
2018-07-08T02:28:39.635Z,7.57
2018-07-08T02:31:11.675Z,5.20
2018-07-08T02:33:43.240Z,6.50
2018-07-08T02:36:15.621Z,10.50
2018-07-08T02:38:49.067Z,6.50
2018-07-08T02:41:23.805Z,5.47
2018-07-08T02:43:55.236Z,7.07
2018-07-08T02:46:28.799Z,6.77
2018-07-08T02:49:00.190Z,7.60
2018-07-08T02:51:32.321Z,7.27
2018-07-08T02:54:04.355Z,8.43
2018-07-08T02:56:38.456Z,6.73
2018-07-08T02:59:10.742Z,5.50
2018-07-08T03:01:43.728Z,6.00
2018-07-08T03:04:15.151Z,6.83
2018-07-08T03:06:47.840Z,5.57
2018-07-08T03:09:19.750Z,4.93
2018-07-08T03:11:53.175Z,5.30
2018-07-08T03:14:25.761Z,4.97
2018-07-08T03:16:58.100Z,5.57
2018-07-08T03:19:30.017Z,7.20
2018-07-08T03:22:01.662Z,6.13
2018-07-08T03:24:34.603Z,4.97
2018-07-08T03:27:04.867Z,5.00
2018-07-08T03:29:35.434Z,5.53
2018-07-08T03:32:06.020Z,6.77
2018-07-08T03:34:40.359Z,5.03
2018-07-08T03:37:11.223Z,5.87
2018-07-08T03:39:42.005Z,5.30
2018-07-08T03:42:12.408Z,5.03
2018-07-08T03:44:43.763Z,6.33
2018-07-08T03:47:15.747Z,7.13
2018-07-08T03:49:46.966Z,4.90
2018-07-08T03:52:19.146Z,5.23
2018-07-08T03:54:49.955Z,5.67
2018-07-08T03:57:21.157Z,9.10
2018-07-08T03:59:52.136Z,6.03
2018-07-08T04:02:22.641Z,5.60
2018-07-08T04:04:53.635Z,8.00
2018-07-08T04:07:24.326Z,6.13
2018-07-08T04:09:54.915Z,5.17
2018-07-08T04:12:26.153Z,7.43
2018-07-08T04:14:56.495Z,6.67
2018-07-08T04:17:27.206Z,5.60
2018-07-08T04:19:57.612Z,8.43
2018-07-08T04:22:28.679Z,5.27
2018-07-08T04:24:59.782Z,5.10
2018-07-08T04:27:31.604Z,6.00
2018-07-08T04:30:02.849Z,5.57
2018-07-08T04:32:33.940Z,6.60
2018-07-08T04:35:09.631Z,9.13
2018-07-08T04:37:41.362Z,5.97
2018-07-08T04:40:13.665Z,4.97
2018-07-08T04:42:44.367Z,7.53
2018-07-08T04:45:16.427Z,5.77
2018-07-08T04:47:47.667Z,5.70
2018-07-08T04:50:19.729Z,5.80
2018-07-08T04:52:50.378Z,7.17
2018-07-08T04:55:20.708Z,6.30
2018-07-08T04:57:51.078Z,7.63
2018-07-08T05:00:22.156Z,6.80
2018-07-08T05:02:53.391Z,8.70
2018-07-08T05:05:24.043Z,12.23
2018-07-08T05:07:55.181Z,6.93
2018-07-08T05:10:25.707Z,6.20
2018-07-08T05:12:56.460Z,9.30
2018-07-08T05:15:27.398Z,6.97
2018-07-08T05:17:57.937Z,8.07
2018-07-08T05:20:29.776Z,7.80
2018-07-08T05:23:00.930Z,9.27
2018-07-08T05:25:32.109Z,7.37
2018-07-08T05:28:02.541Z,8.20
2018-07-08T05:30:33.071Z,5.43
2018-07-08T05:33:03.718Z,6.67
2018-07-08T05:35:35.003Z,6.47
2018-07-08T05:38:06.944Z,6.97
2018-07-08T05:40:37.834Z,7.77
2018-07-08T05:43:09.765Z,9.47
2018-07-08T05:45:43.414Z,6.03
2018-07-08T05:48:15.908Z,9.33
2018-07-08T05:50:46.806Z,7.13
2018-07-08T05:53:18.379Z,5.77
2018-07-08T05:55:50.324Z,5.77
2018-07-08T05:58:21.580Z,5.70
2018-07-08T06:00:51.921Z,4.23
2018-07-08T06:03:22.333Z,4.00
2018-07-08T06:05:53.225Z,5.03
2018-07-08T06:08:24.494Z,4.83
2018-07-08T06:10:58.105Z,6.80
2018-07-08T06:13:29.610Z,5.43
2018-07-08T06:16:01.624Z,7.97
2018-07-08T06:18:32.863Z,5.63
2018-07-08T06:21:04.296Z,3.67
2018-07-08T06:23:36.658Z,4.40
2018-07-08T06:26:10.089Z,6.77
2018-07-08T06:28:41.756Z,6.97
2018-07-08T06:31:13.321Z,5.23
2018-07-08T06:33:44.512Z,8.97
2018-07-08T06:36:15.889Z,6.37
2018-07-08T06:38:47.541Z,8.90
2018-07-08T06:41:24.445Z,4.47
2018-07-08T06:43:57.364Z,5.30
2018-07-08T06:46:28.282Z,5.07
2018-07-08T06:48:58.886Z,9.40
2018-07-08T06:51:29.725Z,6.97
2018-07-08T06:54:01.120Z,5.67
2018-07-08T06:56:31.876Z,4.27
2018-07-08T06:59:02.895Z,4.20
2018-07-08T07:01:33.313Z,4.40
2018-07-08T07:04:04.585Z,6.80
2018-07-08T07:06:35.537Z,6.83
2018-07-08T07:09:11.715Z,6.73
2018-07-08T07:11:42.621Z,6.00
2018-07-08T07:14:13.204Z,5.63
2018-07-08T07:16:43.555Z,8.87
2018-07-08T07:19:13.893Z,4.63
2018-07-08T07:21:44.423Z,4.50
2018-07-08T07:24:14.760Z,6.20
2018-07-08T07:26:46.639Z,4.87
2018-07-08T07:29:18.182Z,5.40
2018-07-08T07:31:49.253Z,10.23
2018-07-08T07:34:19.615Z,4.30
2018-07-08T07:36:51.333Z,3.87
2018-07-08T07:39:21.886Z,7.50
2018-07-08T07:41:52.451Z,4.83
2018-07-08T07:44:23.416Z,4.97
2018-07-08T07:46:54.208Z,3.43
2018-07-08T07:49:24.694Z,3.93
2018-07-08T07:51:57.533Z,4.33
2018-07-08T07:54:27.822Z,6.73
2018-07-08T07:56:58.420Z,7.47
2018-07-08T07:59:29.159Z,6.10
2018-07-08T08:02:00.436Z,5.53
2018-07-08T08:04:31.809Z,4.00
2018-07-08T08:07:03.015Z,5.20
2018-07-08T08:09:33.378Z,2.93
2018-07-08T08:12:05.207Z,3.60
2018-07-08T08:14:35.562Z,5.17
2018-07-08T08:17:06.741Z,3.40
2018-07-08T08:19:38.249Z,4.50
2018-07-08T08:22:10.118Z,3.80
2018-07-08T08:24:42.220Z,3.67
2018-07-08T08:27:13.605Z,6.13
2018-07-08T08:29:44.338Z,2.37
2018-07-08T08:32:18.917Z,3.10
2018-07-08T08:35:09.251Z,2.97
2018-07-08T08:37:43.472Z,2.33
2018-07-08T08:40:16.095Z,3.17
2018-07-08T08:42:46.807Z,3.60
2018-07-08T08:45:19.413Z,4.77
2018-07-08T08:47:51.133Z,3.77
2018-07-08T08:50:22.175Z,3.53
2018-07-08T08:52:52.751Z,4.73
2018-07-08T08:55:25.541Z,6.73
2018-07-08T08:58:03.629Z,2.80
2018-07-08T09:00:35.211Z,3.47
2018-07-08T09:03:06.285Z,3.77
2018-07-08T09:05:37.697Z,2.93
2018-07-08T09:08:08.923Z,4.03
2018-07-08T09:10:40.710Z,7.12
2018-07-08T09:13:16.237Z,3.17
2018-07-08T09:15:47.863Z,3.50
2018-07-08T09:18:19.274Z,2.55
2018-07-08T09:20:49.903Z,7.15
2018-07-08T09:23:21.638Z,5.70
2018-07-08T09:25:52.333Z,4.10
2018-07-08T09:28:23.681Z,3.62
2018-07-08T09:30:54.203Z,4.15
2018-07-08T09:33:25.630Z,5.55
2018-07-08T09:35:56.578Z,5.20
2018-07-08T09:38:26.892Z,3.87
2018-07-08T09:40:58.086Z,3.67
2018-07-08T09:43:29.405Z,3.58
2018-07-08T09:45:59.839Z,4.42
2018-07-08T09:48:30.876Z,2.15
2018-07-08T09:51:03.600Z,1.62
2018-07-08T09:53:35.253Z,2.55
2018-07-08T09:56:05.642Z,3.42
2018-07-08T09:58:36.213Z,1.42
2018-07-08T10:01:06.965Z,3.45
2018-07-08T10:03:37.553Z,1.40
2018-07-08T10:06:08.241Z,5.45
2018-07-08T10:08:39.543Z,3.40
2018-07-08T10:11:10.731Z,1.72
2018-07-08T10:13:41.698Z,3.85
2018-07-08T10:16:12.374Z,3.17
2018-07-08T10:18:42.755Z,1.90
2018-07-08T10:21:13.730Z,2.05
2018-07-08T10:23:44.164Z,2.35
2018-07-08T10:26:16.307Z,5.03
2018-07-08T10:28:47.378Z,1.77
2018-07-08T10:31:18.093Z,2.33
2018-07-08T10:33:56.800Z,3.75
2018-07-08T10:36:28.600Z,3.25
2018-07-08T10:38:59.152Z,2.30
2018-07-08T10:41:30.226Z,3.27
2018-07-08T10:44:02.892Z,4.47
2018-07-08T10:46:33.158Z,3.22
2018-07-08T10:49:05.742Z,3.35
2018-07-08T10:51:36.780Z,1.15
2018-07-08T10:54:08.560Z,1.98
2018-07-08T10:56:39.875Z,3.15
2018-07-08T10:59:10.515Z,3.85
2018-07-08T11:01:41.966Z,2.80
2018-07-08T11:04:12.912Z,1.30
2018-07-08T11:06:45.539Z,1.87
2018-07-08T11:09:16.140Z,2.00
2018-07-08T11:11:46.697Z,2.27
2018-07-08T11:14:17.476Z,3.80
2018-07-08T11:16:49.094Z,3.30
2018-07-08T11:19:20.293Z,2.15
2018-07-08T11:21:51.430Z,2.50
2018-07-08T11:24:22.022Z,3.22
2018-07-08T11:26:53.368Z,2.62
2018-07-08T11:29:25.113Z,1.62
2018-07-08T11:31:56.429Z,2.52
2018-07-08T11:34:27.125Z,2.17
2018-07-08T11:36:57.537Z,3.30
2018-07-08T11:39:29.097Z,2.15
2018-07-08T11:42:00.373Z,1.72
2018-07-08T11:44:32.439Z,1.75
2018-07-08T11:47:03.344Z,1.72
2018-07-08T11:49:34.485Z,1.77
2018-07-08T11:52:06.016Z,1.47
2018-07-08T11:54:36.495Z,2.45
2018-07-08T11:57:07.652Z,2.52
2018-07-08T11:59:38.557Z,2.72
2018-07-08T12:02:10.084Z,2.12
2018-07-08T12:04:41.601Z,1.82
2018-07-08T12:07:12.167Z,1.90
2018-07-08T12:09:44.147Z,3.77
2018-07-08T12:12:15.034Z,3.70
2018-07-08T12:14:45.469Z,3.17
2018-07-08T12:17:16.518Z,2.75
2018-07-08T12:19:48.001Z,1.57
2018-07-08T12:22:19.516Z,1.70
2018-07-08T12:24:50.481Z,4.42
2018-07-08T12:27:21.428Z,1.60
2018-07-08T12:29:52.004Z,5.40
2018-07-08T12:32:22.833Z,1.72
2018-07-08T12:34:54.097Z,2.55
2018-07-08T12:37:25.869Z,1.90
2018-07-08T12:39:56.699Z,1.87
2018-07-08T12:42:27.723Z,2.60
2018-07-08T12:44:59.137Z,2.58
2018-07-08T12:47:30.126Z,1.25
2018-07-08T12:50:07.211Z,2.22
2018-07-08T12:52:38.248Z,3.35
2018-07-08T12:55:09.816Z,2.85
2018-07-08T12:57:41.063Z,0.80
2018-07-08T13:00:11.404Z,1.62
2018-07-08T13:02:41.768Z,1.70
2018-07-08T13:05:13.126Z,2.20
2018-07-08T13:07:45.090Z,2.25
2018-07-08T13:10:15.551Z,1.98
2018-07-08T13:12:46.906Z,0.80
2018-07-08T13:15:18.091Z,1.60
2018-07-08T13:17:49.650Z,1.57
2018-07-08T13:20:20.924Z,1.65
2018-07-08T13:22:52.116Z,1.00
2018-07-08T13:25:22.501Z,1.15
2018-07-08T13:27:54.240Z,1.82
2018-07-08T13:30:27.596Z,2.70
2018-07-08T13:32:58.538Z,3.10
2018-07-08T13:35:29.525Z,1.07
2018-07-08T13:38:00.365Z,2.22
2018-07-08T13:40:33.228Z,2.00
2018-07-08T13:43:04.307Z,1.65
2018-07-08T13:45:38.172Z,4.15
2018-07-08T13:48:09.856Z,1.25
2018-07-08T13:50:41.986Z,2.35
2018-07-08T13:53:13.317Z,1.30
2018-07-08T13:55:46.171Z,1.42
2018-07-08T13:58:17.726Z,1.27
2018-07-08T14:00:48.584Z,2.15
2018-07-08T14:03:19.646Z,2.67
2018-07-08T14:05:50.309Z,1.27
2018-07-08T14:08:21.789Z,1.75
2018-07-08T14:10:52.374Z,1.12
2018-07-08T14:13:23.539Z,2.08
2018-07-08T14:15:55.104Z,2.45
2018-07-08T14:18:27.396Z,2.50
2018-07-08T14:20:58.730Z,1.75
2018-07-08T14:23:30.663Z,2.00
2018-07-08T14:26:01.320Z,1.75
2018-07-08T14:28:33.430Z,2.30
2018-07-08T14:31:04.715Z,1.45
2018-07-08T14:33:35.638Z,0.95
2018-07-08T14:36:06.546Z,6.12
2018-07-08T14:38:37.160Z,2.72
2018-07-08T14:41:07.476Z,3.08
2018-07-08T14:43:40.130Z,1.25
2018-07-08T14:46:11.244Z,3.75
2018-07-08T14:48:43.529Z,2.80
2018-07-08T14:51:14.422Z,4.03
2018-07-08T14:53:45.022Z,2.17
2018-07-08T14:56:16.382Z,1.30
2018-07-08T14:58:47.630Z,1.65
2018-07-08T15:01:19.093Z,1.72
2018-07-08T15:03:50.326Z,3.55
2018-07-08T15:06:21.442Z,2.00
2018-07-08T15:08:52.837Z,2.35
2018-07-08T15:11:24.227Z,2.50
2018-07-08T15:13:54.823Z,1.65
2018-07-08T15:16:26.799Z,1.22
2018-07-08T15:18:57.655Z,2.30
2018-07-08T15:21:29.206Z,3.65
2018-07-08T15:24:00.914Z,1.47
2018-07-08T15:26:31.551Z,5.40
2018-07-08T15:29:03.302Z,2.08
2018-07-08T15:31:34.531Z,3.60
2018-07-08T15:34:04.928Z,1.55
2018-07-08T15:36:36.000Z,2.85
2018-07-08T15:39:07.968Z,1.10
2018-07-08T15:41:38.590Z,3.35
2018-07-08T15:44:09.401Z,3.70
2018-07-08T15:46:40.900Z,2.45
2018-07-08T15:49:12.679Z,3.10
2018-07-08T15:51:45.471Z,1.05
2018-07-08T15:54:17.140Z,1.77
2018-07-08T15:56:48.928Z,2.67
2018-07-08T15:59:20.261Z,1.85
2018-07-08T16:01:51.348Z,2.10
2018-07-08T16:04:24.438Z,1.80
2018-07-08T16:06:55.546Z,3.35
2018-07-08T16:09:25.736Z,2.85
2018-07-08T16:11:56.453Z,2.42
2018-07-08T16:14:27.159Z,2.95
2018-07-08T16:16:58.835Z,2.05
2018-07-08T16:19:29.954Z,1.55
2018-07-08T16:22:02.056Z,2.33
2018-07-08T16:24:34.008Z,2.22
2018-07-08T16:27:06.172Z,3.75
2018-07-08T16:29:37.688Z,1.57
2018-07-08T16:32:09.114Z,2.33
2018-07-08T16:34:39.716Z,2.08
2018-07-08T16:37:10.541Z,2.47
2018-07-08T16:39:42.887Z,3.35
2018-07-08T16:42:15.667Z,2.40
2018-07-08T16:44:48.351Z,1.50
2018-07-08T16:47:18.815Z,1.92
2018-07-08T16:49:51.421Z,5.80
2018-07-08T16:52:22.831Z,1.92
2018-07-08T16:54:54.379Z,1.22
2018-07-08T16:57:26.108Z,2.37
2018-07-08T16:59:57.301Z,3.35
2018-07-08T17:02:32.209Z,2.58
2018-07-08T17:05:03.874Z,1.85
2018-07-08T17:07:34.393Z,2.25
2018-07-08T17:10:05.703Z,1.65
2018-07-08T17:12:36.611Z,4.80
2018-07-08T17:15:09.003Z,2.10
2018-07-08T17:17:39.703Z,1.30
2018-07-08T17:20:11.238Z,2.20
2018-07-08T17:22:44.135Z,2.13
2018-07-08T17:25:16.418Z,2.33
2018-07-08T17:27:48.328Z,3.77
2018-07-08T17:30:29.075Z,2.20
2018-07-08T17:33:03.441Z,3.33
2018-07-08T17:35:37.387Z,5.73
2018-07-08T17:38:09.352Z,4.13
2018-07-08T17:40:42.148Z,3.47
2018-07-08T17:43:13.025Z,1.50
2018-07-08T17:45:49.880Z,3.33
2018-07-08T17:48:34.245Z,3.90
2018-07-08T17:51:17.185Z,3.43
2018-07-08T17:53:50.015Z,4.73
2018-07-08T17:56:21.018Z,3.77
2018-07-08T17:58:52.376Z,3.03
2018-07-08T18:01:24.012Z,1.60
2018-07-08T18:03:58.282Z,2.97
2018-07-08T18:06:30.302Z,6.90
2018-07-08T18:09:03.315Z,2.40
2018-07-08T18:11:35.242Z,1.60
2018-07-08T18:14:07.010Z,4.80
2018-07-08T18:16:38.194Z,7.20
2018-07-08T18:19:09.930Z,8.27
2018-07-08T18:21:41.140Z,3.17
2018-07-08T18:24:12.332Z,3.07
2018-07-08T18:26:43.962Z,2.77
2018-07-08T18:29:14.894Z,7.27
2018-07-08T18:31:45.228Z,2.43
2018-07-08T18:34:16.020Z,7.87
2018-07-08T18:36:46.584Z,3.73
2018-07-08T18:39:17.429Z,4.27
2018-07-08T18:41:49.375Z,3.60
2018-07-08T18:44:20.733Z,2.93
2018-07-08T18:46:52.978Z,6.03
2018-07-08T18:49:23.288Z,5.33
2018-07-08T18:51:54.040Z,5.43
2018-07-08T18:54:25.304Z,5.63
2018-07-08T18:56:56.530Z,5.20
2018-07-08T18:59:27.146Z,4.50
2018-07-08T19:01:57.872Z,5.90
2018-07-08T19:04:29.398Z,4.37
2018-07-08T19:07:00.271Z,3.87
2018-07-08T19:09:31.292Z,3.87
2018-07-08T19:12:03.902Z,6.03
2018-07-08T19:14:36.039Z,5.73
2018-07-08T19:17:07.372Z,6.40
2018-07-08T19:19:38.115Z,6.17
2018-07-08T19:22:09.174Z,6.67
2018-07-08T19:24:40.154Z,6.03
2018-07-08T19:27:11.441Z,5.30
2018-07-08T19:29:43.361Z,4.63
2018-07-08T19:32:14.477Z,5.93
2018-07-08T19:34:45.125Z,5.93
2018-07-08T19:37:17.287Z,5.77
2018-07-08T19:39:48.645Z,9.47
2018-07-08T19:42:19.676Z,4.00
2018-07-08T19:44:50.431Z,4.37
2018-07-08T19:47:22.045Z,5.37
2018-07-08T19:49:52.587Z,5.37
2018-07-08T19:52:24.621Z,5.70
2018-07-08T19:54:54.799Z,5.83
2018-07-08T19:57:27.170Z,4.53
2018-07-08T19:59:57.518Z,6.13
2018-07-08T20:02:29.223Z,5.77
2018-07-08T20:05:01.338Z,6.43
2018-07-08T20:07:33.138Z,3.13
2018-07-08T20:10:05.128Z,4.03
2018-07-08T20:12:35.406Z,5.47
2018-07-08T20:15:06.569Z,4.57
2018-07-08T20:17:37.638Z,4.33
2018-07-08T20:20:09.543Z,4.37
2018-07-08T20:22:40.202Z,5.47
2018-07-08T20:25:11.615Z,6.80
2018-07-08T20:27:43.595Z,5.60
2018-07-08T20:30:14.829Z,7.00
2018-07-08T20:32:45.547Z,3.87
2018-07-08T20:35:17.966Z,5.27
2018-07-08T20:37:48.655Z,4.93
2018-07-08T20:40:19.216Z,5.23
2018-07-08T20:42:49.835Z,4.30
2018-07-08T20:45:21.289Z,5.07
2018-07-08T20:47:52.390Z,6.77
2018-07-08T20:50:24.510Z,5.07
2018-07-08T20:52:56.405Z,5.00
2018-07-08T20:55:26.976Z,4.23
2018-07-08T20:57:58.148Z,5.63
2018-07-08T21:00:28.605Z,4.93
2018-07-08T21:02:59.011Z,7.40
2018-07-08T21:05:29.377Z,4.67
2018-07-08T21:08:00.203Z,5.50
2018-07-08T21:10:31.388Z,3.70
2018-07-08T21:13:03.129Z,10.10
2018-07-08T21:15:33.571Z,5.27
2018-07-08T21:18:04.382Z,3.97
2018-07-08T21:20:35.643Z,4.53
2018-07-08T21:23:06.442Z,4.80
2018-07-08T21:25:37.698Z,5.50
2018-07-08T21:28:08.496Z,5.20
2018-07-08T21:30:39.974Z,7.17
2018-07-08T21:33:11.123Z,6.27
2018-07-08T21:35:41.843Z,8.90
2018-07-08T21:38:13.798Z,5.63
2018-07-08T21:40:47.762Z,7.90
2018-07-08T21:43:19.634Z,5.23
2018-07-08T21:45:50.249Z,6.60
2018-07-08T21:48:21.209Z,8.03
2018-07-08T21:50:51.905Z,6.77
2018-07-08T21:53:22.623Z,6.27
2018-07-08T21:55:54.189Z,6.10
2018-07-08T21:58:25.579Z,6.73
2018-07-08T22:01:15.632Z,7.67
2018-07-08T22:03:50.064Z,7.63
2018-07-08T22:06:21.992Z,6.80
2018-07-08T22:08:53.835Z,6.80
2018-07-08T22:11:24.934Z,6.87
2018-07-08T22:13:56.072Z,7.67
2018-07-08T22:16:27.188Z,5.67
2018-07-08T22:18:59.030Z,5.63
2018-07-08T22:21:29.850Z,7.23
2018-07-08T22:24:01.930Z,6.23
2018-07-08T22:26:33.207Z,4.63
2018-07-08T22:29:07.007Z,7.17
2018-07-08T22:31:41.130Z,7.07
2018-07-08T22:34:13.199Z,6.10
2018-07-08T22:36:45.271Z,8.43
2018-07-08T22:39:16.076Z,5.67
2018-07-08T22:41:46.666Z,7.47
2018-07-08T22:44:17.132Z,7.60
2018-07-08T22:46:48.200Z,5.47
2018-07-08T22:49:23.111Z,5.70
2018-07-08T22:51:57.645Z,6.03
2018-07-08T22:54:29.213Z,6.20
2018-07-08T22:56:59.752Z,7.43
2018-07-08T22:59:31.212Z,6.23
2018-07-08T23:02:12.589Z,5.30
2018-07-08T23:04:47.796Z,8.43
2018-07-08T23:07:18.444Z,6.13
2018-07-08T23:09:49.339Z,8.23
2018-07-08T23:12:19.715Z,6.13
2018-07-08T23:14:50.980Z,8.73
2018-07-08T23:17:22.177Z,8.20
2018-07-08T23:19:53.730Z,6.80
2018-07-08T23:22:33.967Z,6.80
2018-07-08T23:25:06.128Z,6.43
2018-07-08T23:27:37.079Z,6.47
2018-07-08T23:30:08.057Z,9.27
2018-07-08T23:32:39.579Z,5.63
2018-07-08T23:35:10.261Z,7.50
2018-07-08T23:37:40.555Z,6.00
2018-07-08T23:40:11.151Z,5.93
2018-07-08T23:42:42.461Z,4.47
2018-07-08T23:45:18.321Z,6.07
2018-07-08T23:47:49.973Z,7.77
2018-07-08T23:50:20.870Z,6.60
2018-07-08T23:52:51.505Z,5.93
2018-07-08T23:55:22.057Z,8.77
2018-07-08T23:57:52.864Z,8.23
